createdAt,value
2018-05-07T00:00:58.477Z,18.81
2018-05-07T00:01:58.282Z,18.83
2018-05-07T00:02:58.379Z,18.8
2018-05-07T00:03:58.476Z,18.82
2018-05-07T00:04:58.243Z,18.83
2018-05-07T00:05:59.185Z,18.81
2018-05-07T00:06:58.190Z,18.8
2018-05-07T00:07:58.546Z,18.83
2018-05-07T00:08:58.787Z,18.81
2018-05-07T00:09:58.604Z,18.8
2018-05-07T00:10:58.543Z,18.83
2018-05-07T00:11:58.576Z,18.81
2018-05-07T00:12:58.396Z,18.81
2018-05-07T00:13:58.302Z,18.82
2018-05-07T00:14:58.272Z,18.81
2018-05-07T00:15:58.301Z,18.79
2018-05-07T00:16:58.285Z,18.82
2018-05-07T00:17:58.528Z,18.81
2018-05-07T00:18:58.380Z,18.77
2018-05-07T00:19:58.297Z,18.8
2018-05-07T00:20:58.336Z,18.81
2018-05-07T00:21:58.387Z,18.8
2018-05-07T00:22:58.444Z,18.82
2018-05-07T00:23:58.329Z,18.8
2018-05-07T00:24:58.396Z,18.79
2018-05-07T00:25:58.331Z,18.81
2018-05-07T00:26:58.308Z,18.78
2018-05-07T00:27:58.457Z,18.8
2018-05-07T00:28:58.525Z,18.81
2018-05-07T00:29:58.400Z,18.8
2018-05-07T00:30:58.529Z,18.79
2018-05-07T00:31:58.395Z,18.79
2018-05-07T00:32:58.419Z,18.8
2018-05-07T00:33:58.307Z,18.8
2018-05-07T00:34:58.394Z,18.81
2018-05-07T00:35:58.513Z,18.78
2018-05-07T00:36:58.548Z,18.77
2018-05-07T00:37:58.431Z,18.81
2018-05-07T00:38:58.310Z,18.79
2018-05-07T00:39:58.559Z,18.78
2018-05-07T00:40:58.524Z,18.81
2018-05-07T00:41:58.463Z,18.78
2018-05-07T00:42:58.472Z,18.79
2018-05-07T00:43:58.452Z,18.8
2018-05-07T00:44:58.317Z,18.79
2018-05-07T00:45:58.411Z,18.78
2018-05-07T00:46:58.440Z,18.8
2018-05-07T00:47:58.431Z,18.78
2018-05-07T00:48:58.210Z,18.77
2018-05-07T00:49:58.444Z,18.8
2018-05-07T00:50:58.417Z,18.78
2018-05-07T00:51:58.423Z,18.77
2018-05-07T00:52:58.315Z,18.78
2018-05-07T00:53:58.322Z,18.79
2018-05-07T00:54:58.432Z,18.77
2018-05-07T00:55:58.333Z,18.79
2018-05-07T00:56:58.272Z,18.78
2018-05-07T00:57:58.373Z,18.77
2018-05-07T00:58:58.296Z,18.79
2018-05-07T00:59:58.300Z,18.77
2018-05-07T01:00:58.504Z,18.77
2018-05-07T01:01:58.323Z,18.8
2018-05-07T01:02:58.271Z,18.77
2018-05-07T01:03:58.253Z,18.76
2018-05-07T01:04:58.676Z,18.78
2018-05-07T01:05:58.440Z,18.78
2018-05-07T01:06:58.481Z,18.76
2018-05-07T01:07:58.379Z,18.78
2018-05-07T01:08:58.365Z,18.76
2018-05-07T01:09:58.347Z,18.78
2018-05-07T01:10:58.412Z,18.77
2018-05-07T01:11:58.410Z,18.78
2018-05-07T01:12:58.496Z,18.76
2018-05-07T01:13:58.321Z,18.74
2018-05-07T01:14:58.442Z,18.78
2018-05-07T01:15:58.463Z,18.74
2018-05-07T01:16:58.524Z,18.8
2018-05-07T01:17:58.309Z,18.74
2018-05-07T01:18:58.433Z,18.76
2018-05-07T01:19:58.418Z,18.76
2018-05-07T01:20:58.242Z,18.77
2018-05-07T01:21:58.336Z,18.76
2018-05-07T01:22:58.326Z,18.77
2018-05-07T01:23:58.328Z,18.74
2018-05-07T01:24:58.399Z,18.77
2018-05-07T01:25:58.388Z,18.77
2018-05-07T01:26:58.433Z,18.77
2018-05-07T01:27:58.392Z,18.74
2018-05-07T01:28:58.556Z,18.77
2018-05-07T01:29:58.393Z,18.76
2018-05-07T01:30:58.418Z,18.74
2018-05-07T01:31:58.292Z,18.77
2018-05-07T01:32:58.285Z,18.77
2018-05-07T01:33:58.395Z,18.76
2018-05-07T01:34:58.426Z,18.77
2018-05-07T01:35:58.258Z,18.76
2018-05-07T01:36:58.283Z,18.74
2018-05-07T01:37:58.410Z,18.78
2018-05-07T01:39:08.303Z,18.74
2018-05-07T01:39:58.295Z,18.76
2018-05-07T01:40:58.443Z,18.77
2018-05-07T01:41:58.371Z,18.76
2018-05-07T01:42:58.404Z,18.73
2018-05-07T01:43:58.455Z,18.76
2018-05-07T01:44:58.513Z,18.73
2018-05-07T01:45:58.436Z,18.73
2018-05-07T01:46:58.457Z,18.77
2018-05-07T01:47:58.692Z,18.72
2018-05-07T01:48:58.436Z,18.72
2018-05-07T01:49:58.525Z,18.74
2018-05-07T01:50:58.390Z,18.76
2018-05-07T01:51:58.192Z,18.73
2018-05-07T01:52:58.408Z,18.76
2018-05-07T01:53:58.481Z,18.73
2018-05-07T01:54:58.391Z,18.73
2018-05-07T01:55:58.310Z,18.76
2018-05-07T01:56:58.310Z,18.73
2018-05-07T01:57:58.337Z,18.72
2018-05-07T01:58:58.460Z,18.76
2018-05-07T01:59:58.365Z,18.73
2018-05-07T02:00:58.395Z,18.72
2018-05-07T02:01:58.395Z,18.73
2018-05-07T02:02:58.312Z,18.72
2018-05-07T02:03:58.398Z,18.72
2018-05-07T02:04:58.264Z,18.74
2018-05-07T02:05:58.244Z,18.72
2018-05-07T02:06:58.405Z,18.69
2018-05-07T02:07:58.304Z,18.73
2018-05-07T02:08:58.482Z,18.72
2018-05-07T02:09:58.271Z,18.72
2018-05-07T02:10:58.348Z,18.73
2018-05-07T02:11:58.516Z,18.73
2018-05-07T02:12:58.302Z,18.71
2018-05-07T02:13:58.400Z,18.73
2018-05-07T02:14:58.301Z,18.74
2018-05-07T02:15:58.396Z,18.7
2018-05-07T02:16:58.226Z,18.73
2018-05-07T02:17:58.413Z,18.72
2018-05-07T02:18:58.569Z,18.73
2018-05-07T02:19:58.367Z,18.72
2018-05-07T02:20:58.312Z,18.72
2018-05-07T02:21:58.455Z,18.7
2018-05-07T02:22:58.379Z,18.73
2018-05-07T02:23:58.350Z,18.72
2018-05-07T02:24:58.349Z,18.72
2018-05-07T02:25:58.433Z,18.76
2018-05-07T02:26:58.382Z,18.71
2018-05-07T02:27:58.253Z,18.72
2018-05-07T02:28:58.459Z,18.72
2018-05-07T02:29:58.236Z,18.7
2018-05-07T02:30:58.391Z,18.69
2018-05-07T02:31:58.403Z,18.73
2018-05-07T02:32:58.388Z,18.71
2018-05-07T02:33:58.281Z,18.7
2018-05-07T02:34:58.323Z,18.72
2018-05-07T02:35:58.370Z,18.69
2018-05-07T02:36:58.452Z,18.7
2018-05-07T02:37:58.322Z,18.72
2018-05-07T02:38:58.746Z,18.73
2018-05-07T02:39:58.375Z,18.71
2018-05-07T02:40:58.278Z,18.71
2018-05-07T02:41:58.333Z,18.71
2018-05-07T02:42:58.337Z,18.71
2018-05-07T02:43:58.302Z,18.73
2018-05-07T02:44:58.310Z,18.7
2018-05-07T02:45:58.306Z,18.69
2018-05-07T02:46:58.456Z,18.72
2018-05-07T02:47:58.543Z,18.7
2018-05-07T02:48:58.360Z,18.7
2018-05-07T02:49:58.343Z,18.72
2018-05-07T02:50:58.329Z,18.7
2018-05-07T02:51:58.485Z,18.69
2018-05-07T02:52:58.287Z,18.73
2018-05-07T02:53:58.200Z,18.7
2018-05-07T02:54:58.292Z,18.69
2018-05-07T02:55:58.210Z,18.7
2018-05-07T02:56:58.278Z,18.69
2018-05-07T02:57:58.396Z,18.7
2018-05-07T02:58:58.448Z,18.71
2018-05-07T02:59:58.362Z,18.71
2018-05-07T03:00:58.274Z,18.69
2018-05-07T03:01:58.331Z,18.71
2018-05-07T03:02:58.242Z,18.7
2018-05-07T03:03:58.223Z,18.69
2018-05-07T03:04:58.346Z,18.71
2018-05-07T03:05:58.239Z,18.7
2018-05-07T03:06:58.247Z,18.69
2018-05-07T03:07:58.380Z,18.69
2018-05-07T03:08:58.339Z,18.7
2018-05-07T03:09:58.280Z,18.71
2018-05-07T03:10:58.281Z,18.69
2018-05-07T03:11:58.315Z,18.71
2018-05-07T03:12:58.325Z,18.68
2018-05-07T03:13:58.250Z,18.7
2018-05-07T03:14:58.317Z,18.69
2018-05-07T03:15:58.259Z,18.69
2018-05-07T03:16:58.538Z,18.71
2018-05-07T03:17:58.353Z,18.69
2018-05-07T03:18:58.360Z,18.69
2018-05-07T03:19:58.378Z,18.71
2018-05-07T03:20:58.416Z,18.69
2018-05-07T03:21:58.320Z,18.69
2018-05-07T03:22:58.557Z,18.71
2018-05-07T03:23:58.372Z,18.69
2018-05-07T03:24:58.347Z,18.68
2018-05-07T03:25:58.232Z,18.7
2018-05-07T03:26:58.299Z,18.7
2018-05-07T03:27:58.237Z,18.67
2018-05-07T03:28:58.278Z,18.71
2018-05-07T03:29:58.223Z,18.69
2018-05-07T03:30:58.275Z,18.69
2018-05-07T03:31:58.464Z,18.69
2018-05-07T03:32:58.513Z,18.68
2018-05-07T03:33:58.283Z,18.68
2018-05-07T03:34:58.379Z,18.71
2018-05-07T03:35:58.269Z,18.67
2018-05-07T03:36:58.403Z,18.68
2018-05-07T03:37:58.342Z,18.69
2018-05-07T03:38:58.401Z,18.68
2018-05-07T03:40:58.281Z,18.69
2018-05-07T03:41:58.308Z,18.68
2018-05-07T03:42:58.390Z,18.67
2018-05-07T03:43:58.331Z,18.69
2018-05-07T03:44:58.344Z,18.69
2018-05-07T06:01:42.256Z,18.68
2018-05-07T06:02:42.606Z,18.7
2018-05-07T06:03:42.781Z,18.69
2018-05-07T06:04:42.515Z,18.69
2018-05-07T06:05:42.150Z,18.71
2018-05-07T06:06:42.266Z,18.69
2018-05-07T06:07:42.335Z,18.71
2018-05-07T06:08:42.315Z,18.72
2018-05-07T06:09:42.318Z,18.7
2018-05-07T06:10:42.246Z,18.69
2018-05-07T06:11:42.384Z,18.72
2018-05-07T06:12:42.111Z,18.71
2018-05-07T06:13:42.228Z,18.69
2018-05-07T06:14:42.954Z,18.71
2018-05-07T06:15:42.104Z,18.71
2018-05-07T06:16:42.500Z,18.69
2018-05-07T06:17:42.065Z,18.7
2018-05-07T06:18:42.213Z,18.72
2018-05-07T06:19:42.416Z,18.69
2018-05-07T06:20:42.238Z,18.7
2018-05-07T06:21:42.215Z,18.71
2018-05-07T06:22:42.196Z,18.69
2018-05-07T06:23:42.081Z,18.71
2018-05-07T06:24:42.201Z,18.71
2018-05-07T06:25:42.226Z,18.72
2018-05-07T06:26:42.233Z,18.72
2018-05-07T06:27:42.078Z,18.69
2018-05-07T06:28:42.345Z,18.69
2018-05-07T06:29:42.105Z,18.71
2018-05-07T06:30:42.148Z,18.7
2018-05-07T06:31:42.333Z,18.71
2018-05-07T06:32:42.187Z,18.72
2018-05-07T06:33:42.326Z,18.7
2018-05-07T06:34:42.112Z,18.71
2018-05-07T06:35:42.321Z,18.71
2018-05-07T06:36:42.241Z,18.69
2018-05-07T06:37:42.165Z,18.69
2018-05-07T06:38:42.401Z,18.71
2018-05-07T06:39:42.344Z,18.71
2018-05-07T06:40:42.225Z,18.69
2018-05-07T06:41:42.275Z,18.72
2018-05-07T06:42:42.305Z,18.71
2018-05-07T06:43:42.442Z,18.7
2018-05-07T06:44:42.125Z,18.7
2018-05-07T06:45:42.328Z,18.71
2018-05-07T06:46:42.360Z,18.69
2018-05-07T06:47:42.250Z,18.72
2018-05-07T06:48:42.354Z,18.71
2018-05-07T06:49:42.239Z,18.69
2018-05-07T06:50:42.168Z,18.71
2018-05-07T06:51:42.322Z,18.71
2018-05-07T06:52:42.445Z,18.69
2018-05-07T06:53:43.475Z,18.71
2018-05-07T06:54:42.311Z,18.71
2018-05-07T06:55:42.248Z,18.69
2018-05-07T06:56:42.179Z,18.71
2018-05-07T06:57:42.229Z,18.7
2018-05-07T06:58:42.294Z,18.68
2018-05-07T06:59:42.243Z,18.72
2018-05-07T07:00:42.172Z,18.71
2018-05-07T07:01:42.268Z,18.7
2018-05-07T07:02:43.435Z,18.71
2018-05-07T07:03:42.319Z,18.69
2018-05-07T07:04:42.249Z,18.69
2018-05-07T07:05:42.309Z,18.73
2018-05-07T07:06:42.285Z,18.7
2018-05-07T07:07:42.063Z,18.69
2018-05-07T07:08:42.711Z,18.71
2018-05-07T07:09:42.251Z,18.69
2018-05-07T07:10:42.227Z,18.7
2018-05-07T07:11:42.163Z,18.7
2018-05-07T07:12:42.209Z,18.71
2018-05-07T07:13:42.240Z,18.7
2018-05-07T07:14:42.210Z,18.72
2018-05-07T07:15:42.180Z,18.71
2018-05-07T07:16:42.265Z,18.69
2018-05-07T07:17:42.300Z,18.7
2018-05-07T07:18:42.039Z,18.71
2018-05-07T07:19:42.094Z,18.7
2018-05-07T07:20:42.160Z,18.71
2018-05-07T07:21:42.342Z,18.68
2018-05-07T07:22:42.138Z,18.69
2018-05-07T07:23:42.242Z,18.72
2018-05-07T07:24:42.296Z,18.7
2018-05-07T07:25:42.107Z,18.69
2018-05-07T07:26:42.338Z,18.74
2018-05-07T07:27:42.209Z,18.7
2018-05-07T07:28:42.112Z,18.7
2018-05-07T07:29:52.089Z,18.71
2018-05-07T07:30:42.090Z,18.7
2018-05-07T07:31:42.286Z,18.7
2018-05-07T07:32:42.243Z,18.72
2018-05-07T07:33:42.635Z,18.69
2018-05-07T07:34:42.123Z,18.7
2018-05-07T07:35:42.072Z,18.71
2018-05-07T07:36:42.221Z,18.68
2018-05-07T07:37:42.238Z,18.69
2018-05-07T07:38:42.650Z,18.71
2018-05-07T07:39:42.474Z,18.69
2018-05-07T07:40:42.291Z,18.72
2018-05-07T07:41:42.309Z,18.69
2018-05-07T07:42:42.236Z,18.7
2018-05-07T07:43:42.222Z,18.69
2018-05-07T07:44:42.245Z,18.7
2018-05-07T07:45:42.142Z,18.69
2018-05-07T07:46:42.040Z,18.69
2018-05-07T07:47:42.453Z,18.7
2018-05-07T07:48:42.225Z,18.69
2018-05-07T07:49:42.334Z,18.69
2018-05-07T07:50:42.319Z,18.72
2018-05-07T07:51:42.424Z,18.69
2018-05-07T07:52:42.208Z,18.68
2018-05-07T07:53:42.571Z,18.7
2018-05-07T07:54:42.177Z,18.7
2018-05-07T07:55:42.090Z,18.67
2018-05-07T07:56:42.235Z,18.71
2018-05-07T07:57:42.028Z,18.68
2018-05-07T07:58:42.211Z,18.7
2018-05-07T07:59:42.187Z,18.72
2018-05-07T08:00:42.249Z,18.69
2018-05-07T08:01:42.787Z,18.69
2018-05-07T08:02:42.172Z,18.7
2018-05-07T08:03:42.212Z,18.69
2018-05-07T08:04:42.293Z,18.68
2018-05-07T08:05:42.137Z,18.69
2018-05-07T08:06:42.231Z,18.7
2018-05-07T08:07:42.353Z,18.69
2018-05-07T08:08:42.095Z,18.7
2018-05-07T08:09:42.146Z,18.69
2018-05-07T08:10:42.200Z,18.69
2018-05-07T08:11:42.271Z,18.7
2018-05-07T08:12:42.240Z,18.69
2018-05-07T08:13:42.277Z,18.69
2018-05-07T08:14:42.250Z,18.7
2018-05-07T08:15:42.180Z,18.68
2018-05-07T08:16:42.072Z,18.68
2018-05-07T08:17:42.159Z,18.71
2018-05-07T08:18:42.217Z,18.68
2018-05-07T08:19:42.097Z,18.69
2018-05-07T08:20:42.116Z,18.69
2018-05-07T08:21:42.122Z,18.68
2018-05-07T08:22:42.223Z,18.68
2018-05-07T08:23:42.143Z,18.7
2018-05-07T08:24:42.476Z,18.7
2018-05-07T08:25:42.269Z,18.7
2018-05-07T08:26:42.164Z,18.72
2018-05-07T08:27:42.298Z,18.7
2018-05-07T08:28:42.382Z,18.68
2018-05-07T08:29:42.147Z,18.71
2018-05-07T08:30:42.043Z,18.69
2018-05-07T08:31:42.102Z,18.69
2018-05-07T08:32:42.210Z,18.7
2018-05-07T08:33:42.233Z,18.68
2018-05-07T08:34:42.171Z,18.7
2018-05-07T08:35:42.299Z,18.69
2018-05-07T08:36:42.728Z,18.68
2018-05-07T08:37:42.149Z,18.69
2018-05-07T08:38:42.114Z,18.7
2018-05-07T08:39:42.284Z,18.7
2018-05-07T08:40:42.214Z,18.7
2018-05-07T08:41:42.103Z,18.69
2018-05-07T08:42:42.121Z,18.68
2018-05-07T08:43:42.275Z,18.68
2018-05-07T08:44:42.176Z,18.69
2018-05-07T08:45:42.152Z,18.69
2018-05-07T08:46:42.177Z,18.69
2018-05-07T08:47:42.201Z,18.69
2018-05-07T08:48:42.180Z,18.68
2018-05-07T08:49:42.076Z,18.68
2018-05-07T08:50:42.038Z,18.69
2018-05-07T08:51:42.348Z,18.69
2018-05-07T08:52:42.360Z,18.69
2018-05-07T08:53:42.273Z,18.72
2018-05-07T08:54:42.138Z,18.69
2018-05-07T08:55:42.253Z,18.69
2018-05-07T08:56:42.081Z,18.69
2018-05-07T08:57:42.377Z,18.71
2018-05-07T08:58:42.225Z,18.68
2018-05-07T08:59:42.198Z,18.69
2018-05-07T09:00:42.144Z,18.68
2018-05-07T09:01:42.045Z,18.69
2018-05-07T09:02:42.252Z,18.69
2018-05-07T09:03:42.044Z,18.67
2018-05-07T09:04:42.041Z,18.68
2018-05-07T09:05:42.043Z,18.7
2018-05-07T09:06:42.041Z,18.69
2018-05-07T09:07:42.266Z,18.67
2018-05-07T09:08:42.286Z,18.7
2018-05-07T09:09:42.141Z,18.68
2018-05-07T09:10:42.274Z,18.67
2018-05-07T09:11:42.246Z,18.71
2018-05-07T09:12:42.311Z,18.67
2018-05-07T09:13:42.884Z,18.65
2018-05-07T09:14:42.059Z,18.69
2018-05-07T09:15:42.230Z,18.67
2018-05-07T09:16:42.248Z,18.68
2018-05-07T09:17:42.101Z,18.7
2018-05-07T09:18:42.287Z,18.69
2018-05-07T09:19:42.214Z,18.67
2018-05-07T09:20:42.278Z,18.7
2018-05-07T09:21:42.124Z,18.67
2018-05-07T09:22:42.305Z,18.67
2018-05-07T09:23:42.279Z,18.68
2018-05-07T09:24:42.684Z,18.66
2018-05-07T09:25:52.090Z,18.68
2018-05-07T09:26:42.219Z,18.69
2018-05-07T09:27:42.055Z,18.67
2018-05-07T09:28:42.310Z,18.67
2018-05-07T09:29:42.063Z,18.68
2018-05-07T09:30:41.997Z,18.68
2018-05-07T09:31:42.065Z,18.67
2018-05-07T09:32:42.053Z,18.71
2018-05-07T09:33:42.113Z,18.66
2018-05-07T09:34:42.161Z,18.68
2018-05-07T09:35:42.195Z,18.69
2018-05-07T09:36:42.136Z,18.67
2018-05-07T09:37:42.107Z,18.67
2018-05-07T09:38:42.287Z,18.7
2018-05-07T09:39:42.127Z,18.68
2018-05-07T09:40:42.206Z,18.69
2018-05-07T09:41:42.051Z,18.69
2018-05-07T09:42:42.023Z,18.68
2018-05-07T09:43:42.242Z,18.67
2018-05-07T09:44:42.319Z,18.68
2018-05-07T09:45:42.200Z,18.7
2018-05-07T09:46:42.071Z,18.66
2018-05-07T09:47:42.260Z,18.7
2018-05-07T09:48:42.215Z,18.68
2018-05-07T09:49:42.262Z,18.66
2018-05-07T09:50:42.119Z,18.69
2018-05-07T09:51:42.083Z,18.69
2018-05-07T09:52:42.293Z,18.68
2018-05-07T09:53:42.148Z,18.68
2018-05-07T09:54:42.061Z,18.68
2018-05-07T09:55:42.387Z,18.68
2018-05-07T09:56:42.281Z,18.7
2018-05-07T09:57:42.141Z,18.68
2018-05-07T09:58:42.085Z,18.67
2018-05-07T09:59:42.203Z,18.67
2018-05-07T10:00:42.059Z,18.69
2018-05-07T10:01:42.141Z,18.67
2018-05-07T10:02:42.152Z,18.69
2018-05-07T10:03:42.135Z,18.67
2018-05-07T10:04:42.090Z,18.67
2018-05-07T10:05:42.386Z,18.67
2018-05-07T10:06:42.137Z,18.69
2018-05-07T10:07:42.035Z,18.65
2018-05-07T10:08:42.136Z,18.69
2018-05-07T10:09:42.169Z,18.69
2018-05-07T10:10:42.282Z,18.66
2018-05-07T10:11:42.134Z,18.68
2018-05-07T10:12:42.038Z,18.68
2018-05-07T10:13:42.111Z,18.68
2018-05-07T10:14:42.082Z,18.67
2018-05-07T10:15:41.967Z,18.68
2018-05-07T10:16:42.222Z,18.66
2018-05-07T10:17:42.280Z,18.67
2018-05-07T10:18:42.081Z,18.67
2018-05-07T10:19:42.295Z,18.66
2018-05-07T10:20:42.165Z,18.7
2018-05-07T10:21:42.098Z,18.67
2018-05-07T10:22:42.095Z,18.68
2018-05-07T10:23:42.222Z,18.68
2018-05-07T10:24:42.242Z,18.66
2018-05-07T10:25:42.059Z,18.67
2018-05-07T10:26:41.985Z,18.69
2018-05-07T10:27:42.060Z,18.69
2018-05-07T10:28:42.113Z,18.68
2018-05-07T10:29:42.369Z,18.68
2018-05-07T10:30:42.207Z,18.68
2018-05-07T10:31:42.073Z,18.66
2018-05-07T10:32:42.214Z,18.68
2018-05-07T10:33:42.137Z,18.68
2018-05-07T10:34:42.065Z,18.66
2018-05-07T10:35:42.229Z,18.69
2018-05-07T10:36:42.214Z,18.67
2018-05-07T10:37:42.032Z,18.66
2018-05-07T10:38:42.096Z,18.69
2018-05-07T10:39:42.196Z,18.68
2018-05-07T10:40:42.236Z,18.68
2018-05-07T10:41:42.054Z,18.67
2018-05-07T10:42:42.210Z,18.68
2018-05-07T10:43:42.191Z,18.67
2018-05-07T10:44:42.208Z,18.69
2018-05-07T10:45:42.122Z,18.65
2018-05-07T10:46:42.147Z,18.64
2018-05-07T10:47:42.108Z,18.67
2018-05-07T10:48:42.117Z,18.67
2018-05-07T10:49:42.026Z,18.66
2018-05-07T10:50:42.153Z,18.66
2018-05-07T10:51:42.085Z,18.68
2018-05-07T10:52:42.102Z,18.66
2018-05-07T10:53:42.065Z,18.69
2018-05-07T10:54:42.089Z,18.67
2018-05-07T10:55:41.979Z,18.67
2018-05-07T10:56:42.282Z,18.69
2018-05-07T10:57:42.453Z,18.66
2018-05-07T10:58:42.025Z,18.66
2018-05-07T10:59:42.033Z,18.68
2018-05-07T11:00:42.088Z,18.66
2018-05-07T11:01:42.642Z,18.66
2018-05-07T11:02:42.125Z,18.66
2018-05-07T11:03:41.958Z,18.66
2018-05-07T11:04:42.114Z,18.65
2018-05-07T11:05:42.102Z,18.67
2018-05-07T11:06:41.967Z,18.66
2018-05-07T11:07:42.303Z,18.65
2018-05-07T11:08:42.253Z,18.69
2018-05-07T11:09:42.184Z,18.66
2018-05-07T11:11:13.036Z,18.68
2018-05-07T11:11:42.181Z,18.67
2018-05-07T11:12:42.093Z,18.68
2018-05-07T11:13:41.969Z,18.66
2018-05-07T11:14:42.134Z,18.68
2018-05-07T11:15:42.004Z,18.67
2018-05-07T11:16:42.065Z,18.67
2018-05-07T11:17:42.165Z,18.69
2018-05-07T11:18:42.177Z,18.65
2018-05-07T11:19:42.433Z,18.65
2018-05-07T11:20:42.065Z,18.69
2018-05-07T11:21:42.090Z,18.65
2018-05-07T11:22:42.090Z,18.67
2018-05-07T11:23:42.241Z,18.65
2018-05-07T11:24:42.195Z,18.69
2018-05-07T11:25:42.235Z,18.67
2018-05-07T11:26:42.066Z,18.69
2018-05-07T11:27:42.380Z,18.69
2018-05-07T11:28:42.248Z,18.69
2018-05-07T11:29:42.133Z,18.69
2018-05-07T11:30:42.138Z,18.67
2018-05-07T11:31:42.308Z,18.68
2018-05-07T11:32:42.179Z,18.7
2018-05-07T11:33:42.077Z,18.7
2018-05-07T11:34:42.237Z,18.67
2018-05-07T11:35:42.157Z,18.68
2018-05-07T11:36:42.065Z,18.68
2018-05-07T11:37:42.291Z,18.69
2018-05-07T11:38:42.065Z,18.69
2018-05-07T11:39:42.143Z,18.68
2018-05-07T11:40:42.078Z,18.67
2018-05-07T11:41:42.068Z,18.69
2018-05-07T11:42:42.188Z,18.67
2018-05-07T11:43:42.118Z,18.68
2018-05-07T11:44:42.033Z,18.7
2018-05-07T11:45:42.062Z,18.69
2018-05-07T11:46:42.102Z,18.69
2018-05-07T11:47:42.520Z,18.72
2018-05-07T11:48:42.037Z,18.73
2018-05-07T11:49:41.951Z,18.73
2018-05-07T11:50:42.144Z,18.77
2018-05-07T11:51:42.060Z,18.8
2018-05-07T11:52:42.250Z,18.8
2018-05-07T11:53:42.082Z,18.82
2018-05-07T11:54:42.169Z,18.83
2018-05-07T11:55:42.038Z,18.82
2018-05-07T11:56:42.056Z,18.83
2018-05-07T11:57:42.178Z,18.86
2018-05-07T11:58:42.158Z,18.84
2018-05-07T11:59:42.085Z,18.88
2018-05-07T12:00:42.123Z,18.85
2018-05-07T12:01:42.135Z,18.88
2018-05-07T12:02:42.468Z,18.88
2018-05-07T12:03:42.116Z,18.88
2018-05-07T12:04:42.050Z,18.87
2018-05-07T12:05:42.228Z,18.92
2018-05-07T12:06:42.047Z,18.91
2018-05-07T12:07:42.015Z,18.91
2018-05-07T12:08:42.158Z,18.93
2018-05-07T12:09:42.054Z,18.94
2018-05-07T12:10:42.075Z,18.93
2018-05-07T12:11:42.188Z,18.95
2018-05-07T12:12:42.032Z,18.94
2018-05-07T12:13:42.094Z,18.94
2018-05-07T12:14:42.014Z,18.94
2018-05-07T12:15:42.587Z,18.89
2018-05-07T12:16:42.131Z,18.89
2018-05-07T12:17:42.067Z,18.92
2018-05-07T12:18:42.075Z,18.88
2018-05-07T12:19:42.114Z,18.86
2018-05-07T12:20:42.096Z,18.89
2018-05-07T12:21:42.084Z,18.88
2018-05-07T12:22:42.152Z,18.87
2018-05-07T12:23:42.106Z,18.88
2018-05-07T12:24:42.250Z,18.85
2018-05-07T12:25:42.015Z,18.84
2018-05-07T12:26:42.104Z,18.85
2018-05-07T12:27:42.166Z,18.85
2018-05-07T12:28:42.075Z,18.84
2018-05-07T12:29:42.126Z,18.85
2018-05-07T12:30:42.181Z,18.84
2018-05-07T12:31:43.230Z,18.82
2018-05-07T12:32:41.928Z,18.85
2018-05-07T12:33:42.066Z,18.83
2018-05-07T12:34:42.046Z,18.81
2018-05-07T12:35:42.303Z,18.84
2018-05-07T12:36:41.983Z,18.82
2018-05-07T12:37:42.463Z,18.82
2018-05-07T12:38:42.072Z,18.84
2018-05-07T12:39:42.037Z,18.81
2018-05-07T12:40:42.097Z,18.8
2018-05-07T12:41:42.208Z,18.82
2018-05-07T12:42:42.162Z,18.8
2018-05-07T12:43:42.120Z,18.81
2018-05-07T12:44:42.066Z,18.83
2018-05-07T12:45:42.071Z,18.82
2018-05-07T12:46:42.461Z,18.8
2018-05-07T12:47:42.000Z,18.83
2018-05-07T12:48:42.166Z,18.8
2018-05-07T12:49:42.097Z,18.8
2018-05-07T12:50:42.045Z,18.81
2018-05-07T12:51:42.120Z,18.81
2018-05-07T12:52:42.477Z,18.78
2018-05-07T12:53:42.200Z,18.8
2018-05-07T12:54:42.099Z,18.77
2018-05-07T12:55:41.980Z,18.78
2018-05-07T12:56:42.045Z,18.79
2018-05-07T12:57:42.073Z,18.81
2018-05-07T12:58:41.990Z,18.77
2018-05-07T12:59:41.963Z,18.8
2018-05-07T13:00:42.117Z,18.81
2018-05-07T13:01:42.065Z,18.79
2018-05-07T13:02:42.054Z,18.79
2018-05-07T13:03:42.065Z,18.78
2018-05-07T13:04:42.184Z,18.78
2018-05-07T13:05:42.151Z,18.8
2018-05-07T13:06:41.959Z,18.78
2018-05-07T13:07:42.139Z,18.79
2018-05-07T13:08:42.155Z,18.8
2018-05-07T13:09:41.921Z,18.8
2018-05-07T13:10:42.192Z,18.8
2018-05-07T13:11:42.101Z,18.79
2018-05-07T13:12:42.178Z,18.77
2018-05-07T13:13:42.084Z,18.77
2018-05-07T13:14:42.122Z,18.79
2018-05-07T13:15:42.254Z,18.79
2018-05-07T13:16:42.038Z,18.77
2018-05-07T13:17:42.136Z,18.8
2018-05-07T13:18:42.274Z,18.78
2018-05-07T13:19:41.982Z,18.76
2018-05-07T13:20:42.215Z,18.79
2018-05-07T13:21:42.092Z,18.78
2018-05-07T13:22:42.089Z,18.77
2018-05-07T13:23:41.959Z,18.79
2018-05-07T13:24:42.158Z,18.78
2018-05-07T13:25:42.091Z,18.77
2018-05-07T13:26:42.080Z,18.77
2018-05-07T13:27:41.973Z,18.79
2018-05-07T13:28:42.092Z,18.74
2018-05-07T13:29:41.992Z,18.78
2018-05-07T13:30:42.148Z,18.78
2018-05-07T13:31:42.160Z,18.77
2018-05-07T13:32:42.008Z,18.79
2018-05-07T13:33:42.049Z,18.81
2018-05-07T13:34:42.123Z,18.81
2018-05-07T13:35:42.055Z,18.83
2018-05-07T13:36:42.561Z,18.78
2018-05-07T13:37:42.071Z,18.78
2018-05-07T13:38:42.036Z,18.78
2018-05-07T13:39:42.228Z,18.8
2018-05-07T13:40:42.527Z,18.77
2018-05-07T13:41:42.064Z,18.77
2018-05-07T13:42:42.099Z,18.76
2018-05-07T13:43:42.327Z,18.77
2018-05-07T13:44:42.037Z,18.79
2018-05-07T13:45:42.336Z,18.77
2018-05-07T13:46:42.067Z,18.74
2018-05-07T13:47:42.216Z,18.79
2018-05-07T13:48:42.041Z,18.77
2018-05-07T13:49:41.945Z,18.77
2018-05-07T13:50:42.258Z,18.79
2018-05-07T13:51:42.049Z,18.76
2018-05-07T13:52:42.259Z,18.74
2018-05-07T13:53:41.975Z,18.77
2018-05-07T13:54:42.237Z,18.74
2018-05-07T13:55:42.230Z,18.74
2018-05-07T13:56:42.236Z,18.79
2018-05-07T13:57:42.155Z,18.76
2018-05-07T13:58:42.186Z,18.74
2018-05-07T13:59:42.121Z,18.78
2018-05-07T14:00:42.224Z,18.78
2018-05-07T14:01:42.211Z,18.74
2018-05-07T14:02:42.531Z,18.77
2018-05-07T14:03:42.101Z,18.74
2018-05-07T14:04:42.069Z,18.76
2018-05-07T14:05:42.131Z,18.77
2018-05-07T14:06:42.234Z,18.74
2018-05-07T14:07:42.170Z,18.77
2018-05-07T14:08:42.051Z,18.77
2018-05-07T14:09:42.112Z,18.77
2018-05-07T14:10:42.096Z,18.73
2018-05-07T14:11:42.191Z,18.76
2018-05-07T14:12:42.194Z,18.74
2018-05-07T14:13:42.013Z,18.76
2018-05-07T14:14:42.265Z,18.77
2018-05-07T14:15:52.112Z,18.79
2018-05-07T14:16:42.479Z,18.74
2018-05-07T14:17:42.247Z,18.76
2018-05-07T14:18:42.102Z,18.76
2018-05-07T14:19:42.123Z,18.76
2018-05-07T14:20:42.054Z,18.74
2018-05-07T14:21:42.050Z,18.73
2018-05-07T14:22:42.177Z,18.74
2018-05-07T14:23:41.841Z,18.76
2018-05-07T14:24:42.163Z,18.76
2018-05-07T14:25:42.392Z,18.73
2018-05-07T14:26:42.042Z,18.77
2018-05-07T14:27:42.295Z,18.77
2018-05-07T14:28:42.088Z,18.73
2018-05-07T14:29:42.301Z,18.77
2018-05-07T14:30:42.002Z,18.77
2018-05-07T14:31:42.187Z,18.76
2018-05-07T14:32:42.034Z,18.77
2018-05-07T14:33:42.102Z,18.76
2018-05-07T14:34:42.370Z,18.76
2018-05-07T14:35:42.103Z,18.77
2018-05-07T14:36:41.981Z,18.76
2018-05-07T14:37:42.149Z,18.72
2018-05-07T14:38:42.488Z,18.76
2018-05-07T14:39:41.962Z,18.74
2018-05-07T14:40:41.995Z,18.72
2018-05-07T14:41:42.029Z,18.77
2018-05-07T14:42:42.101Z,18.74
2018-05-07T14:43:41.970Z,18.73
2018-05-07T14:44:41.988Z,18.76
2018-05-07T14:45:41.991Z,18.76
2018-05-07T14:46:42.156Z,18.73
2018-05-07T14:47:42.160Z,18.76
2018-05-07T14:48:42.100Z,18.74
2018-05-07T14:49:41.966Z,18.73
2018-05-07T14:50:42.252Z,18.77
2018-05-07T14:51:42.181Z,18.77
2018-05-07T14:52:42.216Z,18.74
2018-05-07T14:53:41.991Z,18.78
2018-05-07T14:54:42.044Z,18.74
2018-05-07T14:55:42.363Z,18.76
2018-05-07T14:56:42.152Z,18.74
2018-05-07T14:57:42.083Z,18.76
2018-05-07T14:58:42.612Z,18.74
2018-05-07T14:59:41.994Z,18.76
2018-05-07T15:00:41.905Z,18.73
2018-05-07T15:01:42.138Z,18.74
2018-05-07T15:02:42.224Z,18.76
2018-05-07T15:03:41.979Z,18.74
2018-05-07T15:04:42.071Z,18.76
2018-05-07T15:05:41.905Z,18.74
2018-05-07T15:06:42.056Z,18.74
2018-05-07T15:07:42.042Z,18.73
2018-05-07T15:08:42.007Z,18.73
2018-05-07T15:09:42.132Z,18.76
2018-05-07T15:10:42.129Z,18.73
2018-05-07T15:11:42.016Z,18.77
2018-05-07T15:12:41.968Z,18.73